Terminal Aerodrome Forecast
Issued by NWS Charleston, SC

Home | Current Version | Previous Version | Text Only | Print | Product List | Glossary On
Versions: 1 2 3 4 5 6 7 8 9 10 11 12 13 14
000
FTUS42 KCHS 260200 AAA
TAFSAV
TAF AMD
KSAV 260249Z 2603/2624 VRB05KT P6SM VCTS SCT040CB BKN090
      TEMPO 2603/2605 29015G25KT 3/4SM +TSRA SCT015 OVC035CB
     FM260500 VRB03KT P6SM FEW035
     FM261300 27006KT P6SM SCT045
     FM262000 22008KT P6SM BKN045=

USA.gov is the U.S. government's official web portal to all federal, state and local government web resources and services.